createdAt,value
2019-04-30T00:00:45.457Z,1.90
2019-04-30T00:03:25.636Z,1.90
2019-04-30T00:05:57.523Z,1.70
2019-04-30T00:08:30.074Z,1.80
2019-04-30T00:10:59.964Z,1.90
2019-04-30T00:13:30.193Z,2.07
2019-04-30T00:16:01.599Z,1.70
2019-04-30T00:18:37.927Z,1.73
2019-04-30T00:21:05.515Z,1.53
2019-04-30T00:23:36.043Z,1.90
2019-04-30T00:26:10.268Z,1.63
2019-04-30T00:28:39.461Z,1.87
2019-04-30T00:31:10.081Z,1.60
2019-04-30T00:33:40.508Z,1.87
2019-04-30T00:36:11.448Z,1.87
2019-04-30T00:38:41.625Z,1.90
2019-04-30T00:41:12.178Z,1.63
2019-04-30T00:43:48.022Z,2.00
2019-04-30T00:46:17.334Z,2.13
2019-04-30T00:48:46.449Z,1.57
2019-04-30T00:51:21.011Z,2.17
2019-04-30T00:53:51.308Z,2.07
2019-04-30T00:56:24.760Z,1.60
2019-04-30T00:58:52.559Z,1.70
2019-04-30T01:01:43.563Z,1.93
2019-04-30T01:04:19.554Z,2.10
2019-04-30T01:06:50.907Z,1.97
2019-04-30T01:09:21.283Z,2.00
2019-04-30T01:11:51.522Z,2.00
2019-04-30T01:14:23.182Z,1.83
2019-04-30T01:16:53.613Z,1.70
2019-04-30T01:19:29.993Z,1.80
2019-04-30T01:21:55.793Z,1.97
2019-04-30T01:24:28.401Z,1.83
2019-04-30T01:27:00.749Z,1.80
2019-04-30T01:29:38.237Z,2.10
2019-04-30T01:32:02.884Z,2.00
2019-04-30T01:34:33.145Z,1.77
2019-04-30T01:37:04.362Z,1.90
2019-04-30T01:39:35.104Z,1.90
2019-04-30T01:42:07.969Z,2.20
2019-04-30T01:44:39.104Z,2.10
2019-04-30T01:47:09.171Z,2.00
2019-04-30T01:49:42.818Z,1.87
2019-04-30T01:52:11.209Z,2.77
2019-04-30T01:54:41.395Z,2.10
2019-04-30T01:57:29.145Z,1.80
2019-04-30T02:00:05.992Z,2.07
2019-04-30T02:02:39.467Z,2.10
2019-04-30T02:05:11.196Z,1.83
2019-04-30T02:07:41.462Z,2.33
2019-04-30T02:10:11.792Z,2.30
2019-04-30T02:12:42.009Z,2.30
2019-04-30T02:15:12.437Z,1.97
2019-04-30T02:17:43.680Z,2.40
2019-04-30T02:20:14.069Z,2.50
2019-04-30T02:22:44.184Z,2.13
2019-04-30T02:25:14.348Z,2.47
2019-04-30T02:27:45.751Z,2.43
2019-04-30T02:30:15.882Z,2.60
2019-04-30T02:32:46.007Z,2.37
2019-04-30T02:35:29.862Z,2.40
2019-04-30T02:38:12.800Z,2.47
2019-04-30T02:40:43.328Z,2.30
2019-04-30T02:43:14.728Z,2.17
2019-04-30T02:45:49.612Z,2.37
2019-04-30T02:48:22.505Z,2.63
2019-04-30T02:50:53.883Z,2.53
2019-04-30T02:54:00.525Z,2.80
2019-04-30T02:56:31.438Z,2.10
2019-04-30T02:59:03.706Z,2.50
2019-04-30T03:01:33.744Z,2.67
2019-04-30T03:04:03.970Z,2.73
2019-04-30T03:06:35.212Z,2.77
2019-04-30T03:09:06.665Z,2.43
2019-04-30T03:11:40.048Z,2.93
2019-04-30T03:14:10.262Z,2.73
2019-04-30T03:17:00.116Z,2.90
2019-04-30T03:19:45.453Z,2.67
2019-04-30T03:22:20.348Z,2.37
2019-04-30T03:24:50.339Z,2.70
2019-04-30T03:27:24.605Z,2.57
2019-04-30T03:29:53.497Z,2.67
2019-04-30T03:32:23.684Z,2.60
2019-04-30T03:34:53.844Z,2.47
2019-04-30T03:37:25.038Z,2.40
2019-04-30T03:39:55.203Z,2.53
2019-04-30T03:42:25.470Z,2.80
2019-04-30T03:44:55.611Z,3.10
2019-04-30T03:47:26.029Z,2.50
2019-04-30T03:49:56.136Z,2.80
2019-04-30T03:52:29.193Z,3.03
2019-04-30T03:55:02.634Z,3.10
2019-04-30T03:57:31.121Z,3.10
2019-04-30T04:00:01.249Z,2.57
2019-04-30T04:02:43.553Z,2.60
2019-04-30T04:05:32.904Z,2.50
2019-04-30T04:08:25.399Z,3.00
2019-04-30T04:11:14.421Z,2.53
2019-04-30T04:13:44.631Z,2.60
2019-04-30T04:16:14.804Z,2.87
2019-04-30T04:18:45.029Z,2.90
2019-04-30T04:21:16.844Z,2.90
2019-04-30T04:23:49.235Z,2.77
2019-04-30T04:26:20.251Z,2.80
2019-04-30T04:28:51.203Z,2.70
2019-04-30T04:31:22.055Z,2.70
2019-04-30T04:33:59.810Z,3.30
2019-04-30T04:36:30.179Z,2.80
2019-04-30T04:39:00.476Z,3.50
2019-04-30T04:41:30.852Z,3.10
2019-04-30T04:44:01.330Z,3.10
2019-04-30T04:46:31.759Z,3.30
2019-04-30T04:49:02.081Z,3.37
2019-04-30T04:51:38.686Z,3.20
2019-04-30T04:54:04.564Z,3.30
2019-04-30T04:56:35.783Z,3.43
2019-04-30T04:59:06.104Z,3.27
2019-04-30T05:01:38.645Z,3.60
2019-04-30T05:04:11.507Z,2.93
2019-04-30T05:06:40.497Z,3.17
2019-04-30T05:09:10.867Z,4.13
2019-04-30T05:11:41.319Z,3.73
2019-04-30T05:14:11.668Z,3.80
2019-04-30T05:16:42.065Z,3.57
2019-04-30T05:19:13.599Z,6.73
2019-04-30T05:21:44.845Z,6.60
2019-04-30T05:24:15.291Z,6.33
2019-04-30T05:26:48.600Z,5.97
2019-04-30T05:29:19.002Z,9.17
2019-04-30T05:31:49.472Z,5.33
2019-04-30T05:34:19.884Z,7.30
2019-04-30T05:36:50.795Z,10.73
2019-04-30T05:39:21.732Z,11.20
2019-04-30T05:41:52.737Z,25.33
2019-04-30T05:44:23.294Z,7.90
2019-04-30T05:46:53.803Z,7.13
2019-04-30T05:49:24.296Z,9.43
2019-04-30T05:51:55.893Z,7.90
2019-04-30T05:54:26.231Z,6.00
2019-04-30T05:56:56.705Z,10.30
2019-04-30T05:59:28.960Z,5.20
2019-04-30T06:01:59.705Z,5.60
2019-04-30T06:04:31.076Z,3.70
2019-04-30T06:07:01.946Z,3.77
2019-04-30T06:09:42.106Z,3.60
2019-04-30T06:12:35.589Z,3.10
2019-04-30T06:15:25.150Z,3.30
2019-04-30T06:18:00.291Z,3.30
2019-04-30T06:20:28.821Z,3.67
2019-04-30T06:22:59.945Z,3.73
2019-04-30T06:25:40.841Z,3.40
2019-04-30T06:28:02.794Z,3.60
2019-04-30T06:30:33.777Z,3.27
2019-04-30T06:33:22.692Z,3.40
2019-04-30T06:35:53.649Z,2.73
2019-04-30T06:38:25.208Z,3.33
2019-04-30T06:40:55.648Z,3.60
2019-04-30T06:43:26.319Z,3.43
2019-04-30T06:45:58.990Z,3.20
2019-04-30T06:48:31.706Z,3.40
2019-04-30T06:51:02.720Z,3.13
2019-04-30T06:53:32.929Z,3.30
2019-04-30T06:56:03.352Z,3.13
2019-04-30T06:58:33.585Z,3.20
2019-04-30T07:01:03.864Z,3.50
2019-04-30T07:03:34.210Z,3.33
2019-04-30T07:06:04.741Z,2.80
2019-04-30T07:08:55.745Z,2.83
2019-04-30T07:11:36.867Z,2.60
2019-04-30T07:14:06.996Z,2.80
2019-04-30T07:16:37.077Z,2.77
2019-04-30T07:19:09.085Z,2.60
2019-04-30T07:21:42.776Z,3.20
2019-04-30T07:24:11.398Z,3.00
2019-04-30T07:26:41.637Z,2.90
2019-04-30T07:29:13.558Z,3.03
2019-04-30T07:31:44.378Z,2.73
2019-04-30T07:34:37.057Z,2.77
2019-04-30T07:37:15.373Z,2.93
2019-04-30T07:39:39.062Z,2.63
2019-04-30T07:42:10.059Z,2.40
2019-04-30T07:44:40.857Z,2.30
2019-04-30T07:47:11.123Z,2.40
2019-04-30T07:49:49.969Z,2.40
2019-04-30T07:52:13.793Z,2.70
2019-04-30T07:54:44.297Z,2.80
2019-04-30T07:57:14.387Z,2.43
2019-04-30T07:59:44.688Z,2.50
2019-04-30T08:02:15.029Z,2.30
2019-04-30T08:04:53.943Z,2.80
2019-04-30T08:07:43.497Z,2.70
2019-04-30T08:10:14.988Z,2.53
2019-04-30T08:12:45.709Z,2.67
2019-04-30T08:15:16.322Z,2.63
2019-04-30T08:18:00.068Z,2.80
2019-04-30T08:20:19.656Z,3.33
2019-04-30T08:22:51.015Z,2.70
2019-04-30T08:25:22.090Z,2.37
2019-04-30T08:27:52.480Z,2.50
2019-04-30T08:30:26.902Z,2.70
2019-04-30T08:32:56.260Z,2.50
2019-04-30T08:35:29.509Z,2.93
2019-04-30T08:37:59.984Z,2.77
2019-04-30T08:40:30.256Z,2.23
2019-04-30T08:43:00.608Z,2.70
2019-04-30T08:45:34.568Z,3.10
2019-04-30T08:48:03.729Z,2.80
2019-04-30T08:50:34.281Z,2.97
2019-04-30T08:53:04.685Z,2.90
2019-04-30T08:55:35.213Z,2.67
2019-04-30T08:58:09.863Z,2.80
2019-04-30T09:00:38.538Z,3.23
2019-04-30T09:03:09.401Z,2.40
2019-04-30T09:06:02.569Z,2.40
2019-04-30T09:08:35.181Z,2.80
2019-04-30T09:11:05.448Z,3.10
2019-04-30T09:13:36.105Z,2.90
2019-04-30T09:16:06.355Z,2.97
2019-04-30T09:18:36.496Z,2.77
2019-04-30T09:21:08.862Z,2.70
2019-04-30T09:23:47.528Z,2.67
2019-04-30T09:26:11.225Z,3.50
2019-04-30T09:28:41.392Z,2.70
2019-04-30T09:31:11.337Z,2.83
2019-04-30T09:33:41.237Z,2.80
2019-04-30T09:36:11.124Z,3.07
2019-04-30T09:38:41.800Z,2.90
2019-04-30T09:41:11.692Z,2.53
2019-04-30T09:43:41.893Z,2.70
2019-04-30T09:46:19.127Z,2.40
2019-04-30T09:48:44.900Z,2.73
2019-04-30T09:51:15.715Z,2.53
2019-04-30T09:53:58.259Z,2.87
2019-04-30T09:56:19.349Z,2.53
2019-04-30T09:58:49.638Z,3.00
2019-04-30T10:01:22.085Z,2.97
2019-04-30T10:03:52.737Z,2.57
2019-04-30T10:06:36.054Z,2.67
2019-04-30T10:08:56.444Z,2.47
2019-04-30T10:11:44.093Z,2.70
2019-04-30T10:14:14.409Z,2.60
2019-04-30T10:16:50.461Z,2.83
2019-04-30T10:19:20.896Z,2.90
2019-04-30T10:21:51.253Z,3.23
2019-04-30T10:24:21.635Z,3.23
2019-04-30T10:26:52.329Z,2.97
2019-04-30T10:29:23.255Z,3.10
2019-04-30T10:31:54.211Z,3.23
2019-04-30T10:34:24.982Z,2.87
2019-04-30T10:36:55.864Z,2.70
2019-04-30T10:39:29.698Z,2.70
2019-04-30T10:41:59.655Z,2.83
2019-04-30T10:44:30.273Z,2.83
2019-04-30T10:47:00.680Z,2.80
2019-04-30T10:49:31.050Z,2.77
2019-04-30T10:52:01.964Z,2.50
2019-04-30T10:54:33.497Z,2.70
2019-04-30T10:57:08.565Z,3.00
2019-04-30T10:59:38.803Z,2.40
2019-04-30T11:02:10.816Z,2.87
2019-04-30T11:04:41.175Z,2.70
2019-04-30T11:07:11.628Z,2.60
2019-04-30T11:09:42.083Z,3.13
2019-04-30T11:12:12.699Z,2.93
2019-04-30T11:14:43.488Z,2.80
2019-04-30T11:17:14.094Z,2.80
2019-04-30T11:19:45.066Z,2.80
2019-04-30T11:22:15.683Z,2.80
2019-04-30T11:24:56.593Z,2.50
2019-04-30T11:27:20.273Z,2.40
2019-04-30T11:29:49.765Z,2.40
2019-04-30T11:32:23.057Z,2.93
2019-04-30T11:34:53.641Z,2.70
2019-04-30T11:37:23.940Z,2.57
2019-04-30T11:39:55.004Z,2.40
2019-04-30T11:42:25.346Z,2.50
2019-04-30T11:44:55.677Z,2.43
2019-04-30T11:47:30.139Z,2.10
2019-04-30T11:50:00.540Z,2.40
2019-04-30T11:52:30.820Z,2.00
2019-04-30T11:55:01.066Z,2.20
2019-04-30T11:57:31.247Z,3.40
2019-04-30T12:00:01.594Z,3.17
2019-04-30T12:02:52.992Z,2.90
2019-04-30T12:05:24.076Z,2.90
2019-04-30T12:08:26.645Z,2.83
2019-04-30T12:11:15.249Z,3.20
2019-04-30T12:13:44.559Z,2.70
2019-04-30T12:16:14.635Z,2.50
2019-04-30T12:18:45.357Z,2.60
2019-04-30T12:21:15.533Z,2.50
2019-04-30T12:23:45.949Z,2.60
2019-04-30T12:26:16.125Z,2.30
2019-04-30T12:28:46.407Z,2.40
2019-04-30T12:31:18.609Z,2.40
2019-04-30T12:33:48.942Z,2.60
2019-04-30T12:36:19.471Z,2.77
2019-04-30T12:38:49.695Z,2.30
2019-04-30T12:41:20.020Z,2.30
2019-04-30T12:43:50.320Z,2.70
2019-04-30T12:46:21.291Z,2.27
2019-04-30T12:49:07.428Z,2.30
2019-04-30T12:51:46.112Z,2.50
2019-04-30T12:54:26.977Z,2.70
2019-04-30T12:57:11.184Z,2.20
2019-04-30T12:59:41.752Z,2.30
2019-04-30T13:02:12.481Z,2.47
2019-04-30T13:04:42.860Z,2.67
2019-04-30T13:07:13.871Z,2.70
2019-04-30T13:09:44.792Z,2.23
2019-04-30T13:12:16.572Z,2.60
2019-04-30T13:14:52.477Z,2.57
2019-04-30T13:17:19.142Z,2.87
2019-04-30T13:19:50.080Z,2.50
2019-04-30T13:22:20.504Z,3.03
2019-04-30T13:24:51.038Z,2.97
2019-04-30T13:27:22.578Z,2.53
2019-04-30T13:30:02.056Z,2.33
2019-04-30T13:32:36.157Z,2.83
2019-04-30T13:35:06.772Z,2.30
2019-04-30T13:37:43.341Z,2.70
2019-04-30T13:40:24.476Z,2.40
2019-04-30T13:42:55.356Z,2.50
2019-04-30T13:45:25.791Z,2.50
2019-04-30T13:47:56.261Z,2.33
2019-04-30T13:50:29.023Z,2.20
2019-04-30T13:52:59.836Z,2.67
2019-04-30T13:55:42.479Z,1.85
2019-04-30T13:58:02.192Z,2.40
2019-04-30T14:00:32.649Z,2.58
2019-04-30T14:03:20.105Z,2.05
2019-04-30T14:05:51.593Z,2.30
2019-04-30T14:08:28.989Z,2.02
2019-04-30T14:11:19.060Z,2.83
2019-04-30T14:13:49.243Z,2.70
2019-04-30T14:16:19.720Z,2.33
2019-04-30T14:18:49.624Z,2.75
2019-04-30T14:21:32.235Z,2.87
2019-04-30T14:23:51.104Z,2.50
2019-04-30T14:26:21.135Z,2.37
2019-04-30T14:28:51.100Z,2.70
2019-04-30T14:31:21.060Z,2.00
2019-04-30T14:33:50.972Z,2.75
2019-04-30T14:36:20.953Z,2.87
2019-04-30T14:38:50.864Z,2.98
2019-04-30T14:41:22.278Z,2.70
2019-04-30T14:43:58.723Z,2.30
2019-04-30T14:46:45.186Z,2.40
2019-04-30T14:49:37.061Z,2.37
2019-04-30T14:52:09.181Z,2.70
2019-04-30T14:54:58.839Z,2.12
2019-04-30T14:58:00.073Z,2.60
2019-04-30T15:00:59.347Z,2.70
2019-04-30T15:03:29.570Z,2.58
2019-04-30T15:05:59.867Z,2.02
2019-04-30T15:08:30.122Z,2.37
2019-04-30T15:11:00.168Z,3.35
2019-04-30T15:13:30.331Z,2.67
2019-04-30T15:16:00.336Z,2.60
2019-04-30T15:18:30.924Z,2.50
2019-04-30T15:21:00.984Z,2.52
2019-04-30T15:23:57.991Z,2.87
2019-04-30T15:26:24.521Z,2.35
2019-04-30T15:28:52.336Z,2.20
2019-04-30T15:31:22.317Z,1.82
2019-04-30T15:34:02.911Z,2.37
2019-04-30T15:36:30.496Z,2.60
2019-04-30T15:39:30.666Z,1.98
2019-04-30T15:42:00.283Z,2.12
2019-04-30T15:44:30.430Z,2.27
2019-04-30T15:47:01.106Z,2.10
2019-04-30T15:49:34.041Z,2.00
2019-04-30T15:52:04.127Z,2.35
2019-04-30T15:54:34.254Z,2.42
2019-04-30T15:57:04.475Z,2.10
2019-04-30T15:59:42.107Z,2.60
2019-04-30T16:02:24.108Z,2.35
2019-04-30T16:05:15.973Z,2.60
2019-04-30T16:08:08.878Z,2.43
2019-04-30T16:11:08.267Z,2.53
2019-04-30T16:13:58.484Z,2.30
2019-04-30T16:16:32.412Z,2.50
2019-04-30T16:19:03.368Z,2.10
2019-04-30T16:21:34.054Z,2.83
2019-04-30T16:24:04.574Z,3.03
2019-04-30T16:26:46.375Z,2.97
2019-04-30T16:29:06.958Z,2.90
2019-04-30T16:31:39.154Z,2.70
2019-04-30T16:34:09.799Z,2.63
2019-04-30T16:36:39.660Z,3.00
2019-04-30T16:39:10.193Z,2.20
2019-04-30T16:41:40.815Z,2.40
2019-04-30T16:44:11.080Z,2.80
2019-04-30T16:46:41.096Z,3.00
2019-04-30T16:49:13.293Z,3.00
2019-04-30T16:51:42.729Z,2.97
2019-04-30T16:54:12.624Z,2.70
2019-04-30T16:56:42.763Z,3.17
2019-04-30T16:59:14.765Z,3.10
2019-04-30T17:01:56.906Z,2.73
2019-04-30T17:04:24.574Z,2.40
2019-04-30T17:07:03.112Z,2.13
2019-04-30T17:09:44.613Z,3.10
2019-04-30T17:12:45.525Z,2.70
2019-04-30T17:15:29.211Z,3.10
2019-04-30T17:17:59.189Z,2.60
2019-04-30T17:20:29.081Z,2.60
2019-04-30T17:22:59.591Z,2.37
2019-04-30T17:25:29.710Z,2.60
2019-04-30T17:28:01.505Z,3.00
2019-04-30T17:30:31.200Z,2.20
2019-04-30T17:33:01.104Z,2.80
2019-04-30T17:35:31.163Z,3.20
2019-04-30T17:38:01.456Z,2.73
2019-04-30T17:40:32.313Z,2.90
2019-04-30T17:43:02.203Z,2.97
2019-04-30T17:45:32.113Z,2.60
2019-04-30T17:48:02.416Z,3.03
2019-04-30T17:50:32.563Z,3.30
2019-04-30T17:53:03.367Z,2.27
2019-04-30T17:55:33.644Z,3.10
2019-04-30T17:58:04.837Z,2.33
2019-04-30T18:00:55.776Z,11.63
2019-04-30T18:03:25.767Z,3.20
2019-04-30T18:05:56.204Z,3.10
2019-04-30T18:08:26.340Z,2.63
2019-04-30T18:10:56.536Z,3.20
2019-04-30T18:13:26.565Z,2.57
2019-04-30T18:16:00.227Z,2.87
2019-04-30T18:18:37.798Z,2.60
2019-04-30T18:21:26.658Z,2.80
2019-04-30T18:24:19.531Z,3.33
2019-04-30T18:26:54.816Z,2.80
2019-04-30T18:29:25.164Z,2.90
2019-04-30T18:31:55.265Z,3.33
2019-04-30T18:34:25.243Z,3.07
2019-04-30T18:36:55.268Z,3.47
2019-04-30T18:39:25.263Z,3.30
2019-04-30T18:41:55.345Z,3.30
2019-04-30T18:44:26.871Z,3.07
2019-04-30T18:46:58.942Z,2.80
2019-04-30T18:49:28.773Z,3.03
2019-04-30T18:51:59.119Z,3.47
2019-04-30T18:54:29.122Z,3.77
2019-04-30T18:56:59.215Z,3.60
2019-04-30T18:59:32.522Z,3.50
2019-04-30T19:02:01.345Z,3.83
2019-04-30T19:04:31.497Z,3.53
2019-04-30T19:07:08.491Z,3.47
2019-04-30T19:09:50.797Z,3.50
2019-04-30T19:12:42.672Z,3.53
2019-04-30T19:16:11.408Z,4.27
2019-04-30T19:18:31.232Z,4.27
2019-04-30T19:21:01.380Z,4.50
2019-04-30T19:23:32.220Z,3.77
2019-04-30T19:26:02.332Z,3.73
2019-04-30T19:28:32.368Z,4.30
2019-04-30T19:31:02.562Z,3.80
2019-04-30T19:33:33.064Z,3.70
2019-04-30T19:36:04.245Z,3.80
2019-04-30T19:38:34.500Z,4.10
2019-04-30T19:41:04.480Z,4.20
2019-04-30T19:43:34.372Z,3.97
2019-04-30T19:46:04.799Z,4.33
2019-04-30T19:48:34.965Z,3.57
2019-04-30T19:51:05.113Z,4.20
2019-04-30T19:53:35.020Z,3.93
2019-04-30T19:56:05.073Z,4.07
2019-04-30T19:58:52.352Z,4.07
2019-04-30T20:01:07.008Z,3.60
2019-04-30T20:03:37.032Z,4.07
2019-04-30T20:06:08.904Z,3.50
2019-04-30T20:08:40.047Z,3.70
2019-04-30T20:11:10.426Z,3.80
2019-04-30T20:13:41.330Z,3.53
2019-04-30T20:16:19.607Z,3.37
2019-04-30T20:18:49.870Z,4.00
2019-04-30T20:21:28.333Z,3.50
2019-04-30T20:23:53.481Z,4.53
2019-04-30T20:26:23.316Z,4.00
2019-04-30T20:28:54.948Z,4.40
2019-04-30T20:31:24.829Z,4.67
2019-04-30T20:33:54.879Z,4.30
2019-04-30T20:36:25.328Z,3.77
2019-04-30T20:39:16.036Z,4.10
2019-04-30T20:41:46.565Z,4.80
2019-04-30T20:44:19.001Z,4.43
2019-04-30T20:46:49.167Z,4.50
2019-04-30T20:49:19.337Z,3.90
2019-04-30T20:51:55.191Z,4.40
2019-04-30T20:54:20.949Z,4.20
2019-04-30T20:56:51.024Z,4.33
2019-04-30T20:59:21.017Z,4.40
2019-04-30T21:01:51.283Z,4.70
2019-04-30T21:04:21.180Z,4.23
2019-04-30T21:06:51.114Z,4.27
2019-04-30T21:09:21.051Z,4.00
2019-04-30T21:11:51.989Z,4.33
2019-04-30T21:14:23.390Z,5.30
2019-04-30T21:16:54.173Z,4.70
2019-04-30T21:19:24.092Z,5.00
2019-04-30T21:21:53.936Z,5.20
2019-04-30T21:24:24.307Z,4.60
2019-04-30T21:26:54.245Z,4.57
2019-04-30T21:29:24.157Z,5.47
2019-04-30T21:32:11.868Z,4.93
2019-04-30T21:34:56.821Z,5.13
2019-04-30T21:37:26.712Z,5.23
2019-04-30T21:39:58.187Z,5.17
2019-04-30T21:42:28.240Z,5.13
2019-04-30T21:44:58.135Z,5.70
2019-04-30T21:47:28.051Z,5.33
2019-04-30T21:49:57.924Z,5.33
2019-04-30T21:52:27.833Z,5.97
2019-04-30T21:54:59.522Z,5.80
2019-04-30T21:57:29.244Z,5.80
2019-04-30T21:59:59.630Z,5.40
2019-04-30T22:02:29.817Z,5.83
2019-04-30T22:05:00.115Z,5.73
2019-04-30T22:07:30.084Z,5.20
2019-04-30T22:10:00.843Z,5.50
2019-04-30T22:12:31.138Z,6.00
2019-04-30T22:15:01.329Z,5.60
2019-04-30T22:17:31.859Z,5.67
2019-04-30T22:20:02.081Z,6.90
2019-04-30T22:22:32.302Z,6.23
2019-04-30T22:25:02.748Z,6.30
2019-04-30T22:27:33.054Z,5.93
2019-04-30T22:30:03.252Z,5.83
2019-04-30T22:32:33.480Z,6.67
2019-04-30T22:35:29.835Z,6.33
2019-04-30T22:38:01.700Z,6.67
2019-04-30T22:40:31.737Z,6.40
2019-04-30T22:43:01.840Z,5.60
2019-04-30T22:45:38.307Z,5.07
2019-04-30T22:48:08.917Z,5.87
2019-04-30T22:50:38.881Z,6.07
2019-04-30T22:53:11.152Z,5.77
2019-04-30T22:55:41.048Z,5.80
2019-04-30T22:58:10.979Z,5.20
2019-04-30T23:00:43.644Z,5.90
2019-04-30T23:03:26.074Z,6.27
2019-04-30T23:05:56.029Z,6.10
2019-04-30T23:08:25.946Z,6.17
2019-04-30T23:11:14.754Z,6.50
2019-04-30T23:13:44.842Z,6.57
2019-04-30T23:16:15.127Z,5.83
2019-04-30T23:18:45.709Z,5.93
2019-04-30T23:21:18.823Z,6.53
2019-04-30T23:23:49.023Z,6.17
2019-04-30T23:26:22.011Z,6.43
2019-04-30T23:28:52.419Z,7.47
2019-04-30T23:31:22.313Z,7.00
2019-04-30T23:33:52.340Z,5.40
2019-04-30T23:36:22.224Z,7.40
2019-04-30T23:38:52.235Z,7.37
2019-04-30T23:41:22.233Z,6.43
2019-04-30T23:43:54.847Z,6.63
2019-04-30T23:46:24.629Z,5.97
2019-04-30T23:48:54.552Z,6.43
2019-04-30T23:51:24.475Z,6.60
2019-04-30T23:53:54.467Z,7.30
2019-04-30T23:56:24.348Z,7.50
2019-04-30T23:58:54.332Z,6.63
